Indianapolis International Airport
KIND : rendu visible

Aérodrome :











RETROUVEZ-NOUS SUR...

 
LOGIN :

S'inscrire | Disclaimer

   EN    FR    IT 

 









Légende :    VFR   VFR Marginal   IFR   IFR Intensif   IFR Très Intensif
Visi : 
Plafond : 
>= 8 km
>= 3000ft
5 à 8 km
1000 à 3000 ft
1500m à 5 km
500 à 1000 ft
800 à 1500m
200 à 500 ft
< 800m
< 200 ft
Symboles :   Orages  Brouillard  Fortes neiges  Fortes précipitations  Vent > 20 kt






- Altitude de l'aérodrome : 797 ft
- Code IATA : IND


KIND - Indianapolis International

DERNIER METAR :
  • 182154Z 02012G21KT 10SM CLR 19/01 A3024 RMK AO2 SLP238 T01890006

METARs EXPIRÉS :
  • 182054Z 02014G19KT 10SM CLR 19/02 A3024 RMK AO2 SLP240 60000 T01940017 56009
  • 181954Z 02011G20KT 10SM CLR 19/01 A3025 RMK AO2 PK WND 36026/1926 SLP242 T01940011

TAF KIND
Valide du 18 à 20h jusqu'au 20 à 00h UTC


182026Z 1820/1924 02012G20KT P6SM SKC
FM190000 03009KT P6SM SKC
FM190600 05007KT P6SM SKC
FIR KZID / Amérique du Nord



MET'MAP, la Météo Aéronautique d'un coup d'oeil ! - Copyright ORBIFLY Décembre 2007 - Disclaimer

ORBIFLY MET'MAP TEAM :

Programmation & Développement : Alexandra Zaïnal
Sur une idée originale de : Baudouin d'Aumeries
Assistance à la programmation : Marc-Olivier Méhu
Soutien technique & logistique : Manuel Goepfert

Contact : metmap@orbifly.com




SOURCES & CREDITS :

   NOAA       Earth
Advisory